createdAt,value
2023-04-25T00:01:55.707Z,6.66
2023-04-25T00:04:22.775Z,6.04
2023-04-25T00:06:49.830Z,7.67
2023-04-25T00:09:16.527Z,7.00
2023-04-25T00:11:43.118Z,6.28
2023-04-25T00:14:10.918Z,6.30
2023-04-25T00:16:37.739Z,6.43
2023-04-25T00:19:04.414Z,6.49
2023-04-25T00:21:32.464Z,6.43
2023-04-25T00:23:59.106Z,5.52
2023-04-25T00:26:25.975Z,6.18
2023-04-25T00:28:53.030Z,6.04
2023-04-25T00:31:19.753Z,6.88
2023-04-25T00:33:46.514Z,5.98
2023-04-25T00:36:13.591Z,6.27
2023-04-25T00:38:40.936Z,5.81
2023-04-25T00:41:08.391Z,5.86
2023-04-25T00:43:37.071Z,5.67
2023-04-25T00:46:03.868Z,5.25
2023-04-25T00:48:30.420Z,5.44
2023-04-25T00:50:58.696Z,5.55
2023-04-25T00:53:27.129Z,5.88
2023-04-25T00:55:53.940Z,6.10
2023-04-25T00:58:21.799Z,5.44
2023-04-25T01:00:50.983Z,5.58
2023-04-25T01:03:20.765Z,5.41
2023-04-25T01:05:47.853Z,5.96
2023-04-25T01:08:15.256Z,5.74
2023-04-25T01:10:41.827Z,6.30
2023-04-25T01:13:08.830Z,5.55
2023-04-25T01:15:36.870Z,5.65
2023-04-25T01:18:04.761Z,5.68
2023-04-25T01:20:32.844Z,5.83
2023-04-25T01:22:59.772Z,6.51
2023-04-25T01:25:26.923Z,5.93
2023-04-25T01:27:54.258Z,5.47
2023-04-25T01:30:21.351Z,5.96
2023-04-25T01:32:49.332Z,6.30
2023-04-25T01:35:16.192Z,6.13
2023-04-25T01:37:43.807Z,6.10
2023-04-25T01:40:12.989Z,6.09
2023-04-25T01:42:41.532Z,5.88
2023-04-25T01:45:09.002Z,6.24
2023-04-25T01:47:38.604Z,5.85
2023-04-25T01:50:05.720Z,5.89
2023-04-25T01:52:32.958Z,6.23
2023-04-25T01:55:03.519Z,6.08
2023-04-25T01:57:33.152Z,6.28
2023-04-25T02:00:03.818Z,6.92
2023-04-25T02:02:39.705Z,6.42
2023-04-25T02:05:15.004Z,6.87
2023-04-25T02:07:43.754Z,6.58
2023-04-25T02:10:10.691Z,6.11
2023-04-25T02:12:49.425Z,6.51
2023-04-25T02:15:42.201Z,6.50
2023-04-25T02:18:21.390Z,6.94
2023-04-25T02:20:48.223Z,7.21
2023-04-25T02:23:16.294Z,6.72
2023-04-25T02:25:43.059Z,6.39
2023-04-25T02:28:09.986Z,6.73
2023-04-25T02:30:37.098Z,6.36
2023-04-25T02:33:06.621Z,5.85
2023-04-25T02:35:33.298Z,5.86
2023-04-25T02:37:59.922Z,5.74
2023-04-25T02:40:26.565Z,5.83
2023-04-25T02:42:54.642Z,5.89
2023-04-25T02:45:21.462Z,6.06
2023-04-25T02:47:48.184Z,6.32
2023-04-25T02:50:14.791Z,5.79
2023-04-25T02:52:41.476Z,5.94
2023-04-25T02:55:16.505Z,4.91
2023-04-25T02:57:43.866Z,5.22
2023-04-25T03:00:15.278Z,4.85
2023-04-25T03:02:42.046Z,4.62
2023-04-25T03:05:08.762Z,4.48
2023-04-25T03:07:36.247Z,5.12
2023-04-25T03:10:03.330Z,6.21
2023-04-25T03:12:31.773Z,6.28
2023-04-25T03:14:58.472Z,6.13
2023-04-25T03:17:25.162Z,5.27
2023-04-25T03:19:51.828Z,5.25
2023-04-25T03:22:18.962Z,4.88
2023-04-25T03:24:45.591Z,5.47
2023-04-25T03:27:12.529Z,6.01
2023-04-25T03:29:39.280Z,5.47
2023-04-25T03:32:06.516Z,6.10
2023-04-25T03:34:33.184Z,5.87
2023-04-25T03:37:00.107Z,6.49
2023-04-25T03:39:26.953Z,6.53
2023-04-25T03:41:53.688Z,6.11
2023-04-25T03:44:21.616Z,6.42
2023-04-25T03:46:48.380Z,6.90
2023-04-25T03:49:17.104Z,6.16
2023-04-25T03:51:56.790Z,6.42
2023-04-25T03:54:23.898Z,5.96
2023-04-25T03:57:05.048Z,5.98
2023-04-25T03:59:34.657Z,6.08
2023-04-25T04:02:01.331Z,6.07
2023-04-25T04:04:29.067Z,5.72
2023-04-25T04:06:56.445Z,5.74
2023-04-25T04:09:28.518Z,7.27
2023-04-25T04:11:56.514Z,5.64
2023-04-25T04:14:23.064Z,5.96
2023-04-25T04:16:52.452Z,6.57
2023-04-25T04:19:19.214Z,6.30
2023-04-25T04:21:52.931Z,6.73
2023-04-25T04:24:19.644Z,7.02
2023-04-25T04:26:57.957Z,6.77
2023-04-25T04:29:40.123Z,7.90
2023-04-25T04:32:28.491Z,7.57
2023-04-25T04:34:56.365Z,8.39
2023-04-25T04:37:25.106Z,8.49
2023-04-25T04:39:52.854Z,8.20
2023-04-25T04:42:30.738Z,8.76
2023-04-25T04:45:14.837Z,8.10
2023-04-25T04:48:07.052Z,8.07
2023-04-25T04:50:47.837Z,8.12
2023-04-25T04:53:22.633Z,7.26
2023-04-25T04:56:07.588Z,7.56
2023-04-25T04:58:53.481Z,7.69
2023-04-25T05:01:40.502Z,8.61
2023-04-25T05:04:21.988Z,9.12
2023-04-25T05:07:07.137Z,8.62
2023-04-25T05:09:45.869Z,9.11
2023-04-25T05:12:31.489Z,9.06
2023-04-25T05:15:16.797Z,9.57
2023-04-25T05:17:52.282Z,9.72
2023-04-25T05:20:32.339Z,9.71
2023-04-25T05:23:17.558Z,9.43
2023-04-25T05:25:55.938Z,9.07
2023-04-25T05:28:45.986Z,8.96
2023-04-25T05:31:24.551Z,8.51
2023-04-25T05:34:04.478Z,8.04
2023-04-25T05:36:42.159Z,8.17
2023-04-25T05:39:09.822Z,7.46
2023-04-25T05:42:05.833Z,7.71
2023-04-25T05:44:50.348Z,7.65
2023-04-25T05:47:43.108Z,6.74
2023-04-25T05:50:20.412Z,6.95
2023-04-25T05:53:10.193Z,6.83
2023-04-25T05:55:40.490Z,6.89
2023-04-25T05:58:25.111Z,7.23
2023-04-25T06:00:52.584Z,6.96
2023-04-25T06:03:20.954Z,6.48
2023-04-25T06:05:48.953Z,6.55
2023-04-25T06:08:15.541Z,6.72
2023-04-25T06:10:43.218Z,6.35
2023-04-25T06:13:09.848Z,6.24
2023-04-25T06:15:37.359Z,6.06
2023-04-25T06:18:04.110Z,6.25
2023-04-25T06:20:30.848Z,5.89
2023-04-25T06:22:59.784Z,5.21
2023-04-25T06:25:41.738Z,4.91
2023-04-25T06:28:08.508Z,5.08
2023-04-25T06:30:35.487Z,4.87
2023-04-25T06:33:09.481Z,4.97
2023-04-25T06:35:36.339Z,4.77
2023-04-25T06:38:04.166Z,4.87
2023-04-25T06:40:31.701Z,5.04
2023-04-25T06:42:59.030Z,4.90
2023-04-25T06:45:38.828Z,4.38
2023-04-25T06:48:08.347Z,4.14
2023-04-25T06:50:34.976Z,3.82
2023-04-25T06:53:02.510Z,4.15
2023-04-25T06:55:31.395Z,4.32
2023-04-25T06:58:13.143Z,3.78
2023-04-25T07:01:12.021Z,3.78
2023-04-25T07:03:39.302Z,3.96
2023-04-25T07:06:11.943Z,3.70
2023-04-25T07:08:39.062Z,3.71
2023-04-25T07:11:26.014Z,3.57
2023-04-25T07:13:52.678Z,3.21
2023-04-25T07:16:19.421Z,3.29
2023-04-25T07:18:47.151Z,3.15
2023-04-25T07:21:14.341Z,2.93
2023-04-25T07:23:42.885Z,3.24
2023-04-25T07:26:14.490Z,3.37
2023-04-25T07:28:59.587Z,3.31
2023-04-25T07:31:26.233Z,3.34
2023-04-25T07:33:52.860Z,3.17
2023-04-25T07:36:19.586Z,3.16
2023-04-25T07:38:46.267Z,4.02
2023-04-25T07:41:12.963Z,4.11
2023-04-25T07:43:39.604Z,3.97
2023-04-25T07:46:06.400Z,3.96
2023-04-25T07:48:34.960Z,4.20
2023-04-25T07:51:02.721Z,3.60
2023-04-25T07:53:29.670Z,3.51
2023-04-25T07:56:02.102Z,3.06
2023-04-25T07:58:32.086Z,3.12
2023-04-25T08:01:01.569Z,3.02
2023-04-25T08:03:37.350Z,3.23
2023-04-25T08:06:09.009Z,3.20
2023-04-25T08:08:44.511Z,3.53
2023-04-25T08:11:14.131Z,3.53
2023-04-25T08:13:40.784Z,3.67
2023-04-25T08:16:07.530Z,3.57
2023-04-25T08:18:35.059Z,3.21
2023-04-25T08:21:01.708Z,3.13
2023-04-25T08:23:28.909Z,2.81
2023-04-25T08:26:10.220Z,2.68
2023-04-25T08:28:38.961Z,2.64
2023-04-25T08:31:05.843Z,2.77
2023-04-25T08:33:40.549Z,2.82
2023-04-25T08:39:00.578Z,2.94
2023-04-25T08:41:27.831Z,3.07
2023-04-25T08:43:56.943Z,2.77
2023-04-25T08:46:24.621Z,3.18
2023-04-25T08:49:16.175Z,3.21
2023-04-25T08:51:51.831Z,3.52
2023-04-25T08:54:35.698Z,3.35
2023-04-25T08:57:05.255Z,3.33
2023-04-25T08:59:33.211Z,3.20
2023-04-25T09:02:02.047Z,3.27
2023-04-25T09:04:33.683Z,3.20
2023-04-25T09:07:00.394Z,2.96
2023-04-25T09:09:27.388Z,3.22
2023-04-25T09:11:55.572Z,2.94
2023-04-25T09:14:26.071Z,3.38
2023-04-25T09:17:02.118Z,2.95
2023-04-25T09:19:51.943Z,2.74
2023-04-25T09:34:00.275Z,2.97
2023-04-25T09:37:22.967Z,2.77
2023-04-25T09:40:46.445Z,3.10
2023-04-25T09:43:41.550Z,2.90
2023-04-25T09:53:55.721Z,2.50
2023-04-25T10:03:18.433Z,2.07
2023-04-25T11:28:50.291Z,1.94
2023-04-25T11:31:16.991Z,2.10
2023-04-25T11:33:44.590Z,2.04
2023-04-25T11:36:11.151Z,2.14
2023-04-25T11:38:37.731Z,2.14
2023-04-25T11:41:04.402Z,2.21
2023-04-25T11:43:31.175Z,1.99
2023-04-25T11:45:57.903Z,1.97
2023-04-25T11:48:26.354Z,2.23
2023-04-25T11:50:54.824Z,2.48
2023-04-25T11:53:21.472Z,2.34
2023-04-25T11:55:48.757Z,2.56
2023-04-25T11:58:15.387Z,2.48
2023-04-25T12:00:50.389Z,2.26
2023-04-25T12:03:19.343Z,1.73
2023-04-25T12:05:47.406Z,1.94
2023-04-25T12:08:15.404Z,1.81
2023-04-25T12:10:43.903Z,2.07
2023-04-25T12:13:21.290Z,1.73
2023-04-25T12:15:48.454Z,1.90
2023-04-25T12:18:15.404Z,2.13
2023-04-25T12:20:42.515Z,1.69
2023-04-25T12:23:09.095Z,2.02
2023-04-25T12:25:36.004Z,1.98
2023-04-25T12:28:21.036Z,1.98
2023-04-25T12:30:53.963Z,2.08
2023-04-25T12:33:20.573Z,12.26
2023-04-25T12:35:47.178Z,6.07
2023-04-25T12:38:21.541Z,3.00
2023-04-25T12:40:48.048Z,1.83
2023-04-25T12:43:14.557Z,1.81
2023-04-25T12:45:41.456Z,1.71
2023-04-25T12:48:08.056Z,2.47
2023-04-25T12:50:34.643Z,2.68
2023-04-25T12:53:01.275Z,2.25
2023-04-25T12:55:27.802Z,1.84
2023-04-25T12:57:54.363Z,1.80
2023-04-25T13:00:21.073Z,2.07
2023-04-25T13:02:50.509Z,2.15
2023-04-25T13:05:17.291Z,2.00
2023-04-25T13:07:43.847Z,2.36
2023-04-25T13:10:10.550Z,5.30
2023-04-25T13:12:37.066Z,4.48
2023-04-25T13:15:03.671Z,5.94
2023-04-25T13:17:30.955Z,4.11
2023-04-25T13:19:57.481Z,3.47
2023-04-25T13:22:24.037Z,2.04
2023-04-25T13:24:50.595Z,2.02
2023-04-25T13:27:17.201Z,1.72
2023-04-25T13:29:43.731Z,1.60
2023-04-25T13:32:10.882Z,1.73
2023-04-25T13:34:37.544Z,1.56
2023-04-25T13:37:04.208Z,1.66
2023-04-25T13:39:30.744Z,1.39
2023-04-25T13:41:57.282Z,1.50
2023-04-25T13:44:23.797Z,1.40
2023-04-25T13:46:50.463Z,1.69
2023-04-25T13:49:17.386Z,1.62
2023-04-25T13:51:43.978Z,1.40
2023-04-25T13:54:10.600Z,1.71
2023-04-25T13:56:37.280Z,1.70
2023-04-25T13:59:03.992Z,2.02
2023-04-25T14:01:32.077Z,1.98
2023-04-25T14:03:58.902Z,1.86
2023-04-25T14:06:26.253Z,2.05
2023-04-25T14:08:52.950Z,1.63
2023-04-25T14:11:19.580Z,1.70
2023-04-25T14:13:46.444Z,3.99
2023-04-25T14:16:13.083Z,2.99
2023-04-25T14:18:39.744Z,4.00
2023-04-25T14:21:06.502Z,2.25
2023-04-25T14:23:33.020Z,4.10
2023-04-25T14:25:59.593Z,3.42
2023-04-25T14:28:26.298Z,2.80
2023-04-25T14:30:52.887Z,2.30
2023-04-25T14:33:19.453Z,1.60
2023-04-25T14:35:46.499Z,1.44
2023-04-25T14:38:13.235Z,1.65
2023-04-25T14:40:40.244Z,1.60
2023-04-25T14:43:06.750Z,1.51
2023-04-25T14:45:34.313Z,1.41
2023-04-25T14:48:01.436Z,1.24
2023-04-25T14:50:28.103Z,1.26
2023-04-25T14:52:54.649Z,1.23
2023-04-25T14:55:21.562Z,1.47
2023-04-25T14:57:48.099Z,1.45
2023-04-25T15:00:17.171Z,1.53
2023-04-25T15:02:44.002Z,1.63
2023-04-25T15:05:10.919Z,1.76
2023-04-25T15:07:37.796Z,1.84
2023-04-25T15:10:04.541Z,1.78
2023-04-25T15:12:31.123Z,1.81
2023-04-25T15:14:57.992Z,1.73
2023-04-25T15:17:24.662Z,1.85
2023-04-25T15:19:51.269Z,2.01
2023-04-25T15:22:17.865Z,1.51
2023-04-25T15:24:44.391Z,1.67
2023-04-25T15:27:11.681Z,1.75
2023-04-25T15:29:38.321Z,2.02
2023-04-25T15:32:05.029Z,2.06
2023-04-25T15:34:31.717Z,2.11
2023-04-25T15:36:58.928Z,2.40
2023-04-25T15:39:25.544Z,2.57
2023-04-25T15:41:52.115Z,1.95
2023-04-25T15:44:18.702Z,2.03
2023-04-25T15:46:45.800Z,2.67
2023-04-25T15:49:12.351Z,2.65
2023-04-25T15:51:38.868Z,3.37
2023-04-25T15:54:05.532Z,3.06
2023-04-25T15:56:32.314Z,3.18
2023-04-25T15:58:59.915Z,3.36
2023-04-25T16:01:30.627Z,3.02
2023-04-25T16:04:00.691Z,4.70
2023-04-25T16:06:27.501Z,4.11
2023-04-25T16:08:55.085Z,3.34
2023-04-25T16:11:22.040Z,2.52
2023-04-25T16:13:48.694Z,2.63
2023-04-25T16:16:16.158Z,2.30
2023-04-25T16:18:42.731Z,2.32
2023-04-25T16:21:09.671Z,3.03
2023-04-25T16:23:36.382Z,2.88
2023-04-25T16:26:03.125Z,2.65
2023-04-25T16:28:29.632Z,2.80
2023-04-25T16:30:56.251Z,3.17
2023-04-25T16:33:22.887Z,2.78
2023-04-25T16:35:50.767Z,2.95
2023-04-25T16:38:17.316Z,2.91
2023-04-25T16:40:43.914Z,2.45
2023-04-25T16:43:10.449Z,2.75
2023-04-25T16:45:37.020Z,2.65
2023-04-25T16:48:03.838Z,3.22
2023-04-25T16:50:30.445Z,3.13
2023-04-25T16:52:57.060Z,4.67
2023-04-25T16:55:23.613Z,4.69
2023-04-25T16:57:50.264Z,6.75
2023-04-25T17:00:18.174Z,5.94
2023-04-25T17:02:44.809Z,6.49
2023-04-25T17:05:11.927Z,6.01
2023-04-25T17:07:38.474Z,4.54
2023-04-25T17:10:05.311Z,5.93
2023-04-25T17:12:32.618Z,4.78
2023-04-25T17:15:00.384Z,4.93
2023-04-25T17:17:27.577Z,7.25
2023-04-25T17:19:54.193Z,5.94
2023-04-25T17:22:21.472Z,3.95
2023-04-25T17:24:48.004Z,2.93
2023-04-25T17:27:14.569Z,4.01
2023-04-25T17:29:41.381Z,3.83
2023-04-25T17:32:08.070Z,4.05
2023-04-25T17:34:37.518Z,3.48
2023-04-25T17:37:04.025Z,3.10
2023-04-25T17:39:30.542Z,3.28
2023-04-25T17:41:58.496Z,3.07
2023-04-25T17:44:26.832Z,3.07
2023-04-25T17:46:53.601Z,3.83
2023-04-25T17:49:20.210Z,3.58
2023-04-25T17:51:46.743Z,3.18
2023-04-25T17:54:13.256Z,3.81
2023-04-25T17:56:40.482Z,4.98
2023-04-25T17:59:07.116Z,3.56
2023-04-25T18:01:33.705Z,3.05
2023-04-25T18:04:03.989Z,3.22
2023-04-25T18:06:32.822Z,3.45
2023-04-25T18:08:59.408Z,3.48
2023-04-25T18:11:25.950Z,3.38
2023-04-25T18:13:52.748Z,3.36
2023-04-25T18:16:19.335Z,3.27
2023-04-25T18:18:52.819Z,3.31
2023-04-25T18:21:20.286Z,3.47
2023-04-25T18:23:47.269Z,3.49
2023-04-25T18:26:13.960Z,4.57
2023-04-25T18:28:40.542Z,4.36
2023-04-25T18:31:07.097Z,3.95
2023-04-25T18:33:33.680Z,3.62
2023-04-25T18:36:00.192Z,3.31
2023-04-25T18:41:06.090Z,3.49
2023-04-25T18:43:43.493Z,3.60
2023-04-25T18:46:10.077Z,3.53
2023-04-25T18:48:37.094Z,3.40
2023-04-25T18:51:03.872Z,3.16
2023-04-25T18:53:30.424Z,3.41
2023-04-25T18:55:57.084Z,3.59
2023-04-25T18:58:23.643Z,3.41
2023-04-25T19:00:50.249Z,3.53
2023-04-25T19:03:17.142Z,4.13
2023-04-25T19:05:43.846Z,4.07
2023-04-25T19:08:10.394Z,3.41
2023-04-25T19:10:37.435Z,3.07
2023-04-25T19:13:04.133Z,3.03
2023-04-25T19:15:33.337Z,2.85
2023-04-25T19:17:59.940Z,3.56
2023-04-25T19:20:27.241Z,4.07
2023-04-25T19:22:54.542Z,4.58
2023-04-25T19:25:21.117Z,4.85
2023-04-25T19:27:47.716Z,5.62
2023-04-25T19:30:14.579Z,6.36
2023-04-25T19:32:41.292Z,6.18
2023-04-25T19:35:10.950Z,6.36
2023-04-25T19:37:38.361Z,6.65
2023-04-25T19:40:07.322Z,6.32
2023-04-25T19:42:33.891Z,5.84
2023-04-25T19:45:00.489Z,5.88
2023-04-25T19:47:28.238Z,6.67
2023-04-25T19:49:55.104Z,6.64
2023-04-25T19:52:21.710Z,10.24
2023-04-25T19:54:48.261Z,18.14
2023-04-25T19:57:14.876Z,25.53
2023-04-25T19:59:41.443Z,35.51
2023-04-25T20:02:10.618Z,24.92
2023-04-25T20:04:38.590Z,22.28
2023-04-25T20:07:05.191Z,17.75
2023-04-25T20:09:31.936Z,9.86
2023-04-25T20:11:58.508Z,9.40
2023-04-25T20:14:25.048Z,7.33
2023-04-25T20:16:51.636Z,6.04
2023-04-25T20:19:18.187Z,5.18
2023-04-25T20:21:44.748Z,4.63
2023-04-25T20:24:11.902Z,5.41
2023-04-25T20:26:38.592Z,4.95
2023-04-25T20:29:07.096Z,5.05
2023-04-25T20:31:36.589Z,4.94
2023-04-25T20:34:03.633Z,5.63
2023-04-25T20:36:31.726Z,7.62
2023-04-25T20:38:58.287Z,9.49
2023-04-25T20:41:24.902Z,8.05
2023-04-25T20:43:53.152Z,7.93
2023-04-25T20:46:20.418Z,7.39
2023-04-25T20:48:47.196Z,7.55
2023-04-25T20:51:13.994Z,8.21
2023-04-25T20:53:40.728Z,9.66
2023-04-25T20:56:07.376Z,9.10
2023-04-25T20:58:33.997Z,9.47
2023-04-25T21:01:01.339Z,8.37
2023-04-25T21:03:28.199Z,7.63
2023-04-25T21:05:54.928Z,5.85
2023-04-25T21:08:21.660Z,5.35
2023-04-25T21:10:48.716Z,5.08
2023-04-25T21:13:15.586Z,5.07
2023-04-25T21:15:42.184Z,5.12
2023-04-25T21:18:08.756Z,4.52
2023-04-25T21:20:35.936Z,4.37
2023-04-25T21:23:02.926Z,4.82
2023-04-25T21:25:31.719Z,4.14
2023-04-25T21:27:59.213Z,3.80
2023-04-25T21:30:26.296Z,3.69
2023-04-25T21:32:53.136Z,3.68
2023-04-25T21:35:20.830Z,3.83
2023-04-25T21:37:47.636Z,4.05
2023-04-25T21:40:14.597Z,4.12
2023-04-25T21:42:42.361Z,4.18
2023-04-25T21:45:09.048Z,4.44
2023-04-25T21:47:35.883Z,4.02
2023-04-25T21:50:02.535Z,3.90
2023-04-25T21:52:29.797Z,3.85
2023-04-25T21:54:56.694Z,4.47
2023-04-25T21:57:23.291Z,4.16
2023-04-25T21:59:49.930Z,4.50
2023-04-25T22:02:17.088Z,5.07
2023-04-25T22:04:45.245Z,4.65
2023-04-25T22:07:12.233Z,5.15
2023-04-25T22:09:51.289Z,4.61
2023-04-25T22:12:22.588Z,5.43
2023-04-25T22:14:49.328Z,5.58
2023-04-25T22:17:15.877Z,5.74
2023-04-25T22:19:43.215Z,5.35
2023-04-25T22:22:09.803Z,5.46
2023-04-25T22:24:36.401Z,5.41
2023-04-25T22:27:02.968Z,5.62
2023-04-25T22:29:29.506Z,4.83
2023-04-25T22:31:56.699Z,4.68
2023-04-25T22:34:23.418Z,5.04
2023-04-25T22:36:49.915Z,5.46
2023-04-25T22:39:16.971Z,5.49
2023-04-25T22:41:43.550Z,5.36
2023-04-25T22:44:11.166Z,5.70
2023-04-25T22:46:37.827Z,5.34
2023-04-25T22:49:04.823Z,4.95
2023-04-25T22:51:31.766Z,5.17
2023-04-25T22:53:59.176Z,5.89
2023-04-25T22:56:29.120Z,5.25
2023-04-25T22:58:55.675Z,5.50
2023-04-25T23:01:22.278Z,5.29
2023-04-25T23:03:49.472Z,5.33
2023-04-25T23:06:17.100Z,5.86
2023-04-25T23:08:43.676Z,5.22
2023-04-25T23:11:10.290Z,4.89
2023-04-25T23:13:37.095Z,5.22
2023-04-25T23:16:10.789Z,5.48
2023-04-25T23:18:38.019Z,5.88
2023-04-25T23:21:08.881Z,5.62
2023-04-25T23:23:36.365Z,5.83
2023-04-25T23:26:10.509Z,5.89
2023-04-25T23:28:40.660Z,5.49
2023-04-25T23:31:09.840Z,5.95
2023-04-25T23:33:36.889Z,5.38
2023-04-25T23:36:03.678Z,5.77
2023-04-25T23:38:30.272Z,5.69
2023-04-25T23:40:56.816Z,6.05
2023-04-25T23:43:23.356Z,5.59
2023-04-25T23:45:49.890Z,5.00
2023-04-25T23:48:16.790Z,5.33
2023-04-25T23:50:43.336Z,6.07
2023-04-25T23:53:09.941Z,6.01
2023-04-25T23:55:36.646Z,6.18
2023-04-25T23:58:03.683Z,6.18
